Time;durP1;ratioP1;P1;durP2;ratioP2;P2;SDS_P1;SDS_P2;PMS_P1;PMS_P2;Temp;Humidity;BMP_temperature;BMP_pressure;BME280_temperature;BME280_humidity;BME280_pressure;Samples;Min_cycle;Max_cycle;Signal;HPM_P1;HPM_P2
2022/04/18 00:01:59;;;;;;;2.25;1.63;;;;;;;3.30;63.83;101842.31;5021950;28;20072;-75
2022/04/18 00:04:24;;;;;;;2.58;1.85;;;;;;;3.31;63.86;101840.44;5030112;28;20034;-75
2022/04/18 00:06:50;;;;;;;2.53;1.73;;;;;;;3.31;63.91;101838.56;5020735;28;20033;-75
2022/04/18 00:09:16;;;;;;;2.05;1.52;;;;;;;3.33;64.11;101836.47;5022759;28;20035;-75
2022/04/18 00:11:42;;;;;;;2.03;1.35;;;;;;;3.37;64.15;101830.63;5039394;28;20044;-75
2022/04/18 00:14:08;;;;;;;3.15;1.85;;;;;;;3.38;63.84;101832.31;5039428;28;20032;-75
2022/04/18 00:16:34;;;;;;;3.83;2.20;;;;;;;3.39;64.08;101832.09;5036467;28;20044;-75
2022/04/18 00:19:00;;;;;;;2.60;1.40;;;;;;;3.37;63.84;101826.03;5058949;28;20045;-75
2022/04/18 00:21:25;;;;;;;2.85;1.77;;;;;;;3.38;64.01;101824.16;5018593;28;20120;-75
2022/04/18 00:23:51;;;;;;;2.50;1.65;;;;;;;3.35;63.71;101822.69;5031445;28;20041;-75
2022/04/18 00:26:17;;;;;;;2.47;1.40;;;;;;;3.36;64.13;101823.53;5034671;28;20044;-75
2022/04/18 00:28:42;;;;;;;2.03;1.48;;;;;;;3.36;63.67;101820.81;5030898;28;20112;-75
2022/04/18 00:31:08;;;;;;;2.00;1.30;;;;;;;3.32;63.91;101821.25;5030887;28;20120;-75
2022/04/18 00:33:34;;;;;;;2.67;1.67;;;;;;;3.35;64.08;101821.88;5046502;28;20055;-75
2022/04/18 00:36:00;;;;;;;2.65;1.55;;;;;;;3.35;63.72;101821.88;5023799;28;20532;-75
2022/04/18 00:38:26;;;;;;;5.30;1.40;;;;;;;3.35;63.57;101814.56;5025236;28;20408;-75
2022/04/18 00:40:52;;;;;;;2.75;1.52;;;;;;;3.38;64.28;101821.44;5030167;28;20034;-74
2022/04/18 00:43:17;;;;;;;3.90;1.85;;;;;;;3.36;63.91;101824.38;5029530;28;20095;-75
2022/04/18 00:45:43;;;;;;;2.33;1.70;;;;;;;3.36;64.13;101818.09;5029448;28;20038;-75
2022/04/18 00:48:09;;;;;;;1.70;1.50;;;;;;;3.35;63.78;101816.44;5032183;28;20495;-75
2022/04/18 00:50:35;;;;;;;4.13;1.52;;;;;;;3.36;63.95;101818.09;5029368;28;20119;-75
2022/04/18 00:53:02;;;;;;;2.50;1.52;;;;;;;3.39;63.76;101809.56;5040778;28;20065;-75
2022/04/18 00:55:28;;;;;;;2.65;1.60;;;;;;;3.41;63.69;101807.47;5029037;28;20094;-75
2022/04/18 00:57:55;;;;;;;1.92;1.52;;;;;;;3.39;63.53;101807.69;5031893;28;20036;-74
2022/04/18 01:00:21;;;;;;;1.85;1.40;;;;;;;3.38;63.90;101799.75;5017951;28;20049;-75
2022/04/18 01:02:48;;;;;;;1.75;1.20;;;;;;;3.32;64.12;101798.69;5032506;28;20045;-75
2022/04/18 01:05:13;;;;;;;2.75;1.38;;;;;;;3.30;63.98;101804.34;5032523;28;20148;-74
2022/04/18 01:07:39;;;;;;;1.08;1.00;;;;;;;3.27;63.89;101804.72;5031964;28;20121;-75
2022/04/18 01:10:06;;;;;;;2.80;1.25;;;;;;;3.24;63.94;101807.84;5050627;28;20092;-74
2022/04/18 01:12:32;;;;;;;2.20;1.92;;;;;;;3.24;63.95;101798.88;5014878;28;20068;-75
2022/04/18 01:15:12;;;;;;;1.77;1.30;;;;;;;3.22;63.87;101804.50;5045286;28;20043;-75
2022/04/18 01:17:57;;;;;;;1.70;1.20;;;;;;;3.21;64.17;101804.72;5030463;28;20080;-74
2022/04/18 01:20:42;;;;;;;2.42;1.40;;;;;;;3.19;64.18;101807.63;5047320;28;20038;-75
2022/04/18 01:23:21;;;;;;;2.20;1.55;;;;;;;3.20;64.70;101803.88;5029150;28;20491;-75
2022/04/18 01:28:58;;;;;;;1.80;1.35;;;;;;;3.21;64.21;101799.28;5027581;28;20038;-75
2022/04/18 01:31:25;;;;;;;2.47;1.33;;;;;;;3.21;64.61;101794.69;5052024;28;20057;-75
2022/04/18 01:33:50;;;;;;;2.63;1.58;;;;;;;3.20;64.26;101793.03;5029119;28;20044;-75
2022/04/18 01:36:16;;;;;;;1.55;1.20;;;;;;;3.22;64.12;101792.81;5024911;28;20034;-75
2022/04/18 01:38:43;;;;;;;3.22;1.23;;;;;;;3.20;64.53;101787.59;5016068;28;20546;-75
2022/04/18 01:41:09;;;;;;;4.20;1.20;;;;;;;3.16;64.69;101799.06;5055252;28;20041;-74
2022/04/18 01:43:34;;;;;;;2.58;1.30;;;;;;;3.12;64.76;101789.63;5026555;28;20041;-75
2022/04/18 01:46:00;;;;;;;3.10;1.25;;;;;;;3.11;64.74;101794.22;5030943;28;20048;-75
2022/04/18 01:48:27;;;;;;;2.40;1.38;;;;;;;3.11;64.96;101788.81;5028191;28;20726;-75
2022/04/18 01:50:53;;;;;;;3.30;1.48;;;;;;;3.10;65.13;101786.31;5045630;28;20049;-75
2022/04/18 01:53:19;;;;;;;1.55;1.40;;;;;;;3.07;65.19;101782.13;5029289;28;20495;-75
2022/04/18 01:55:45;;;;;;;2.47;1.23;;;;;;;3.05;65.43;101772.53;5031821;28;20052;-75
2022/04/18 01:58:11;;;;;;;1.70;1.60;;;;;;;3.00;65.33;101770.44;5028825;28;20048;-74
2022/04/18 02:00:41;;;;;;;3.13;1.48;;;;;;;2.99;65.64;101775.03;5060875;28;20071;-75
2022/04/18 02:03:07;;;;;;;2.75;1.30;;;;;;;3.00;65.56;101765.84;5037771;28;20042;-75
2022/04/18 02:05:33;;;;;;;2.45;1.40;;;;;;;3.00;65.71;101765.84;5019131;28;20038;-75
2022/04/18 02:08:00;;;;;;;2.55;1.60;;;;;;;3.03;66.07;101765.44;5056809;28;20757;-75
2022/04/18 02:10:26;;;;;;;1.65;1.50;;;;;;;3.02;66.22;101758.34;5022561;28;20132;-75
2022/04/18 02:12:52;;;;;;;1.55;1.45;;;;;;;3.02;66.33;101754.78;5046977;28;20095;-75
2022/04/18 02:15:17;;;;;;;2.28;1.55;;;;;;;3.02;66.29;101760.22;5024389;28;20408;-75
2022/04/18 02:18:03;;;;;;;2.03;1.73;;;;;;;3.02;66.42;101760.22;5017136;28;20065;-75
2022/04/18 02:20:29;;;;;;;1.80;1.40;;;;;;;3.01;66.72;101763.97;5026636;28;20034;-75
2022/04/18 02:22:56;;;;;;;2.03;1.40;;;;;;;2.98;66.61;101762.50;5026225;28;20136;-75
2022/04/18 02:25:23;;;;;;;1.95;1.65;;;;;;;3.01;67.06;101772.94;5013396;28;20041;-74
2022/04/18 02:27:51;;;;;;;4.53;1.50;;;;;;;3.03;67.10;101761.88;5028021;28;20097;-74
2022/04/18 02:30:17;;;;;;;2.83;1.43;;;;;;;3.05;66.99;101762.50;5045193;28;20076;-74
2022/04/18 02:32:50;;;;;;;2.38;1.73;;;;;;;3.02;67.16;101758.34;5029968;28;20308;-74
2022/04/18 02:35:21;;;;;;;2.97;1.40;;;;;;;2.94;67.59;101760.38;5033820;28;20048;-74
2022/04/18 02:37:50;;;;;;;2.70;1.35;;;;;;;2.88;67.91;101772.03;5016892;28;20041;-75
2022/04/18 02:40:20;;;;;;;4.50;1.70;;;;;;;2.81;68.16;101760.34;5033283;28;20033;-74
2022/04/18 02:42:46;;;;;;;2.17;1.63;;;;;;;2.75;68.50;101761.97;5015164;28;20046;-74
2022/04/18 02:45:16;;;;;;;2.50;1.70;;;;;;;2.74;68.62;101765.72;5038950;28;20060;-74
2022/04/18 02:48:14;;;;;;;1.80;1.67;;;;;;;2.78;69.16;101766.16;5037609;28;20073;-74
2022/04/18 02:50:43;;;;;;;2.25;1.40;;;;;;;2.80;69.50;101759.53;5052757;28;20053;-74
2022/04/18 02:53:10;;;;;;;1.70;1.60;;;;;;;2.84;69.70;101763.50;5032505;28;20045;-74
2022/04/18 02:55:44;;;;;;;5.55;1.85;;;;;;;2.84;69.57;101760.78;5036208;28;20152;-74
2022/04/18 02:58:11;;;;;;;3.30;1.58;;;;;;;2.88;69.52;101748.50;5031358;28;20042;-75
2022/04/18 03:00:37;;;;;;;4.15;1.77;;;;;;;2.90;70.10;101745.56;5014930;28;20049;-74
2022/04/18 03:03:02;;;;;;;2.42;1.60;;;;;;;2.90;70.20;101749.13;5049351;28;20092;-74
2022/04/18 03:05:30;;;;;;;2.17;1.70;;;;;;;2.91;69.61;101744.53;5036898;28;20534;-75
2022/04/18 03:07:57;;;;;;;2.45;1.60;;;;;;;2.95;69.96;101741.22;5031722;28;20045;-74
2022/04/18 03:11:02;;;;;;;3.97;1.38;;;;;;;2.99;69.62;101734.34;5054560;28;20048;-74
2022/04/18 03:13:10;;;;;;;1.75;1.60;;;;;;;3.06;70.11;101736.22;5039464;28;20041;-74
2022/04/18 03:15:37;;;;;;;2.85;1.83;;;;;;;3.03;70.06;101730.19;5015341;28;20500;-74
2022/04/18 03:18:02;;;;;;;4.03;1.80;;;;;;;3.03;70.25;101734.78;5044317;28;20053;-74
2022/04/18 03:20:28;;;;;;;2.22;1.80;;;;;;;3.09;70.25;101724.97;5055187;28;20099;-74
2022/04/18 03:22:55;;;;;;;2.03;1.83;;;;;;;3.11;70.27;101722.88;5036195;28;20434;-74
2022/04/18 03:25:38;;;;;;;4.13;2.38;;;;;;;3.09;70.03;101736.66;5047587;28;20092;-74
2022/04/18 03:28:05;;;;;;;4.75;1.90;;;;;;;3.10;70.43;101737.50;5006541;28;20459;-74
2022/04/18 03:30:31;;;;;;;3.58;2.00;;;;;;;3.10;70.41;101727.47;5051299;28;20051;-74
2022/04/18 03:32:56;;;;;;;2.45;1.80;;;;;;;3.06;70.45;101731.66;5038089;28;20046;-75
2022/04/18 03:35:22;;;;;;;3.40;1.90;;;;;;;3.03;70.50;101730.19;5050882;28;20073;-74
2022/04/18 03:40:32;;;;;;;2.88;1.60;;;;;;;3.07;71.12;101729.78;5041914;28;20037;-74
2022/04/18 03:42:58;;;;;;;3.90;1.70;;;;;;;3.13;71.05;101718.13;5020425;28;20092;-75
2022/04/18 03:45:23;;;;;;;4.28;2.03;;;;;;;3.19;70.84;101717.28;5025985;28;20127;-75
2022/04/18 03:47:49;;;;;;;2.30;1.83;;;;;;;3.20;70.96;101727.94;5027539;28;20069;-75
2022/04/18 03:50:15;;;;;;;4.20;1.70;;;;;;;3.23;71.08;101737.53;5059762;28;20092;-75
2022/04/18 03:52:43;;;;;;;3.05;1.63;;;;;;;3.24;71.21;101729.19;5028599;28;20133;-74
2022/04/18 03:55:27;;;;;;;2.85;1.92;;;;;;;3.26;71.19;101723.53;5040581;28;20099;-75
2022/04/18 03:57:55;;;;;;;1.92;1.75;;;;;;;3.29;71.19;101729.38;5030318;28;20034;-74
2022/04/18 04:00:21;;;;;;;3.03;1.90;;;;;;;3.30;70.97;101725.66;5050303;28;20063;-75
2022/04/18 04:02:49;;;;;;;;;;;;;;;3.35;71.26;101726.91;4997360;28;20389;-75
2022/04/18 04:05:21;;;;;;;4.22;1.77;;;;;;;3.45;71.17;101716.47;5015852;28;19921;-75
2022/04/18 04:07:50;;;;;;;4.80;2.50;;;;;;;3.50;70.87;101716.69;5047473;28;20045;-75
2022/04/18 04:10:24;;;;;;;2.65;2.00;;;;;;;3.55;71.15;101708.75;5027293;28;20072;-75
2022/04/18 04:12:50;;;;;;;3.85;1.77;;;;;;;3.63;70.81;101705.81;5050759;28;20049;-75
2022/04/18 04:15:34;;;;;;;2.70;1.65;;;;;;;3.77;71.06;101710.22;5059239;28;20064;-74
2022/04/18 04:18:06;;;;;;;3.38;2.13;;;;;;;3.86;70.58;101699.97;5019265;28;20054;-74
2022/04/18 04:20:32;;;;;;;4.57;1.90;;;;;;;3.94;70.46;101700.59;5041149;28;20049;-75
2022/04/18 04:22:57;;;;;;;4.80;2.33;;;;;;;4.04;70.45;101700.16;5008181;28;20144;-74
2022/04/18 04:25:36;;;;;;;5.40;2.30;;;;;;;4.14;70.08;101696.97;5012140;28;20073;-74
2022/04/18 04:28:02;;;;;;;4.30;2.30;;;;;;;4.22;69.50;101694.06;5036207;28;20044;-74
2022/04/18 04:30:29;;;;;;;4.57;2.30;;;;;;;4.31;69.75;101694.66;5035984;28;20045;-74
2022/04/18 04:33:00;;;;;;;4.72;2.42;;;;;;;4.40;69.09;101690.66;5030382;28;20037;-75
2022/04/18 04:35:27;;;;;;;4.10;2.30;;;;;;;4.43;69.20;101693.78;5012730;28;20096;-75
2022/04/18 04:38:01;;;;;;;4.68;2.35;;;;;;;4.49;69.38;101692.06;5049907;28;20491;-75
2022/04/18 04:40:49;;;;;;;3.63;2.27;;;;;;;4.57;68.92;101685.56;5064908;28;20036;-74
2022/04/18 04:43:25;;;;;;;5.22;1.83;;;;;;;4.57;69.10;101691.00;5040818;28;20045;-74
2022/04/18 04:45:51;;;;;;;3.42;2.53;;;;;;;4.57;69.18;101691.00;5017758;28;20100;-76
2022/04/18 04:48:23;;;;;;;3.40;2.35;;;;;;;4.53;69.07;101696.88;5029106;28;20603;-75
2022/04/18 04:50:52;;;;;;;3.10;2.25;;;;;;;4.60;69.19;101691.41;5009765;28;20045;-76
2022/04/18 04:53:18;;;;;;;2.28;1.75;;;;;;;4.61;69.19;101686.81;5010456;28;20042;-76
2022/04/18 04:55:45;;;;;;;2.97;1.92;;;;;;;4.70;69.10;101697.22;5011191;28;20096;-76
2022/04/18 04:58:11;;;;;;;5.03;3.10;;;;;;;4.84;69.13;101687.91;5038123;28;20500;-76
2022/04/18 05:00:40;;;;;;;3.83;2.10;;;;;;;4.90;68.94;101688.97;5020195;28;20128;-75
2022/04/18 05:03:17;;;;;;;4.03;2.10;;;;;;;4.94;68.70;101692.91;5031426;28;20046;-76
2022/04/18 05:05:43;;;;;;;3.45;2.10;;;;;;;5.05;68.74;101686.78;5027502;28;20037;-76
2022/04/18 05:08:23;;;;;;;5.50;2.50;;;;;;;5.07;68.30;101692.84;5016964;28;20490;-76
2022/04/18 05:10:48;;;;;;;3.72;2.33;;;;;;;5.12;68.44;101690.28;5036948;28;20128;-76
2022/04/18 05:13:22;;;;;;;4.97;2.20;;;;;;;5.22;68.30;101692.53;5040062;28;20196;-75
2022/04/18 05:15:48;;;;;;;5.00;2.30;;;;;;;5.27;68.25;101680.97;5045672;28;20047;-76
2022/04/18 05:18:34;;;;;;;12.48;2.50;;;;;;;5.29;68.09;101678.88;5029561;28;20057;-75
2022/04/18 05:21:00;;;;;;;7.70;2.20;;;;;;;5.42;67.74;101678.78;5010101;28;20528;-76
2022/04/18 05:23:26;;;;;;;3.22;2.10;;;;;;;5.54;67.89;101681.59;5010921;28;20046;-75
2022/04/18 05:25:54;;;;;;;4.30;2.33;;;;;;;5.68;67.37;101678.53;5042393;28;20092;-75
2022/04/18 05:28:20;;;;;;;5.22;2.10;;;;;;;5.80;67.04;101686.81;5028664;28;20530;-76
2022/04/18 05:30:51;;;;;;;4.28;2.20;;;;;;;5.96;66.92;101675.38;5016364;28;20527;-75
2022/04/18 05:33:21;;;;;;;9.45;2.83;;;;;;;6.11;65.78;101679.63;5024853;28;20045;-75
2022/04/18 05:36:05;;;;;;;6.97;1.98;;;;;;;6.22;65.74;101676.13;5028362;28;20038;-75
2022/04/18 05:38:34;;;;;;;3.08;2.50;;;;;;;6.38;65.54;101671.97;5025685;28;20049;-75
2022/04/18 05:41:21;;;;;;;5.38;2.20;;;;;;;6.61;64.93;101666.66;5029396;28;20088;-75
2022/04/18 05:43:49;;;;;;;9.55;2.85;;;;;;;6.90;63.80;101663.09;5013416;28;20041;-75
2022/04/18 05:46:17;;;;;;;9.95;3.22;;;;;;;7.23;62.92;101654.41;5052136;28;20034;-76
2022/04/18 05:48:43;;;;;;;3.92;2.80;;;;;;;7.45;62.13;101662.03;5061387;28;20045;-76
2022/04/18 05:51:08;;;;;;;9.95;2.85;;;;;;;7.64;61.60;101663.63;5003124;28;20117;-75
2022/04/18 05:53:34;;;;;;;9.00;4.35;;;;;;;7.82;60.79;101668.97;5015571;28;20042;-75
2022/04/18 05:56:03;;;;;;;11.25;3.30;;;;;;;7.86;60.45;101664.69;5028022;28;20045;-75
2022/04/18 05:58:47;;;;;;;7.10;3.33;;;;;;;7.88;60.56;101667.19;5031536;28;20487;-75
2022/04/18 06:01:35;;;;;;;17.58;3.20;;;;;;;7.84;59.88;101666.84;5026987;28;20060;-75
2022/04/18 06:04:07;;;;;;;6.53;3.17;;;;;;;7.81;59.73;101667.31;5029780;28;20523;-75
2022/04/18 06:06:33;;;;;;;7.63;2.78;;;;;;;7.84;59.67;101663.28;5035323;28;20041;-75
2022/04/18 06:08:59;;;;;;;6.20;2.60;;;;;;;7.88;59.47;101660.88;5020485;28;20392;-75
2022/04/18 06:11:27;;;;;;;4.28;2.65;;;;;;;8.01;60.08;101658.75;5021247;28;20508;-77
2022/04/18 06:14:11;;;;;;;7.60;2.53;;;;;;;8.41;59.64;101650.59;5027550;28;20423;-75
2022/04/18 06:16:42;;;;;;;6.32;2.33;;;;;;;8.94;58.33;101659.56;5033166;28;20496;-74
2022/04/18 06:19:08;;;;;;;3.50;2.45;;;;;;;9.32;57.47;101646.00;5032810;28;20045;-74
2022/04/18 06:21:33;;;;;;;8.00;2.58;;;;;;;9.53;55.74;101651.81;5033332;28;20084;-75
2022/04/18 06:24:00;;;;;;;5.05;2.50;;;;;;;9.70;55.28;101652.66;5043466;28;20116;-76
2022/04/18 06:26:33;;;;;;;6.60;2.70;;;;;;;9.65;55.08;101649.84;5032408;28;20096;-74
2022/04/18 06:29:01;;;;;;;7.68;2.78;;;;;;;9.57;54.48;101653.00;5046926;28;20034;-74
2022/04/18 06:31:27;;;;;;;7.80;3.25;;;;;;;9.42;55.20;101634.41;5024616;28;20633;-73
2022/04/18 06:33:59;;;;;;;7.15;2.70;;;;;;;9.66;55.18;101641.38;5048081;28;20034;-74
2022/04/18 06:36:25;;;;;;;5.60;2.40;;;;;;;10.27;54.49;101639.53;5048459;28;20046;-76
2022/04/18 06:39:10;;;;;;;9.88;3.17;;;;;;;11.16;52.21;101633.66;5053048;28;20029;-78
2022/04/18 06:41:36;;;;;;;9.07;3.60;;;;;;;11.85;51.16;101634.75;5031664;28;20060;-79
2022/04/18 06:44:02;;;;;;;8.25;3.42;;;;;;;12.35;49.84;101635.03;5020003;28;20565;-79
2022/04/18 06:46:33;;;;;;;12.20;3.30;;;;;;;13.05;47.63;101637.44;5042336;28;20045;-78
2022/04/18 06:49:05;;;;;;;10.32;2.97;;;;;;;13.79;45.98;101639.66;5045997;28;20077;-78
2022/04/18 06:51:49;;;;;;;12.05;3.40;;;;;;;14.56;44.62;101634.75;5013792;28;20033;-77
2022/04/18 06:54:35;;;;;;;10.20;4.20;;;;;;;15.29;42.89;101635.69;5012402;28;20081;-77
2022/04/18 06:57:11;;;;;;;11.73;3.28;;;;;;;16.02;40.81;101629.22;5020116;28;20034;-76
2022/04/18 06:59:39;;;;;;;10.50;3.60;;;;;;;16.53;39.40;101621.13;5045979;28;20504;-76
2022/04/18 07:02:07;;;;;;;10.65;3.38;;;;;;;16.79;38.55;101626.34;5029042;28;20037;-75
2022/04/18 07:04:32;;;;;;;6.47;2.50;;;;;;;16.81;37.90;101629.63;5012677;28;20042;-77
2022/04/18 07:06:58;;;;;;;6.93;3.17;;;;;;;16.65;38.41;101619.84;5012542;28;20057;-75
2022/04/18 07:09:24;;;;;;;11.48;3.40;;;;;;;16.20;38.05;101619.34;5012515;28;20523;-76
2022/04/18 07:12:10;;;;;;;6.38;2.88;;;;;;;15.71;38.98;101623.19;5031194;28;20076;-76
2022/04/18 07:14:36;;;;;;;14.10;2.83;;;;;;;15.19;39.62;101627.47;5031891;28;20042;-77
2022/04/18 07:17:03;;;;;;;7.38;3.67;;;;;;;14.55;40.53;101617.34;5014775;28;20096;-77
2022/04/18 07:19:31;;;;;;;7.75;2.67;;;;;;;14.08;41.34;101626.91;5045333;28;20052;-76
2022/04/18 07:21:59;;;;;;;9.27;3.50;;;;;;;13.96;41.83;101631.09;5012644;28;20455;-74
2022/04/18 07:24:25;;;;;;;15.07;3.35;;;;;;;14.59;41.98;101629.50;5013085;28;20038;-76
2022/04/18 07:26:53;;;;;;;10.60;2.83;;;;;;;15.45;40.49;101636.41;5011948;28;20153;-75
2022/04/18 07:29:19;;;;;;;7.22;2.63;;;;;;;16.03;38.98;101627.28;5012167;28;20117;-76
2022/04/18 07:31:46;;;;;;;5.47;2.42;;;;;;;16.70;38.44;101630.94;5013098;28;20049;-77
2022/04/18 07:34:12;;;;;;;5.43;2.47;;;;;;;17.32;37.04;101626.91;5044915;28;20037;-76
2022/04/18 07:36:37;;;;;;;4.40;2.13;;;;;;;17.68;36.02;101621.59;5044954;28;20063;-77
2022/04/18 07:39:04;;;;;;;5.40;2.40;;;;;;;17.83;36.26;101626.06;5028534;28;20409;-77
2022/04/18 07:41:38;;;;;;;3.97;1.90;;;;;;;18.00;35.48;101626.28;5011585;28;20069;-78
2022/04/18 07:44:05;;;;;;;7.57;2.33;;;;;;;18.12;35.24;101624.97;5044965;28;20109;-75
2022/04/18 07:46:32;;;;;;;3.38;2.05;;;;;;;18.10;34.91;101625.28;5027939;28;20045;-75
2022/04/18 07:49:00;;;;;;;7.97;2.45;;;;;;;18.09;35.20;101620.84;5026063;28;20088;-75
2022/04/18 07:51:36;;;;;;;6.38;2.30;;;;;;;18.14;34.74;101622.72;5011776;28;20045;-76
2022/04/18 07:54:12;;;;;;;9.85;2.60;;;;;;;17.95;34.99;101620.03;5028163;28;20408;-76
2022/04/18 07:56:38;;;;;;;3.97;1.80;;;;;;;18.35;34.87;101621.97;5027851;28;20136;-75
2022/04/18 07:59:05;;;;;;;9.02;2.03;;;;;;;18.78;34.28;101612.50;5012858;28;20124;-75
2022/04/18 08:01:35;;;;;;;8.70;2.00;;;;;;;19.16;33.73;101622.16;5047028;28;20041;-76
2022/04/18 08:04:02;;;;;;;4.68;1.73;;;;;;;19.31;33.17;101606.22;5045732;28;20044;-76
2022/04/18 08:06:30;;;;;;;4.18;2.33;;;;;;;19.50;32.48;101616.00;5010886;28;20069;-75
2022/04/18 08:09:16;;;;;;;10.50;2.33;;;;;;;19.89;32.41;101620.03;5012333;28;20054;-76
2022/04/18 08:11:42;;;;;;;6.68;1.83;;;;;;;20.25;31.98;101613.44;5010872;28;20531;-76
2022/04/18 08:14:09;;;;;;;5.93;1.75;;;;;;;20.37;31.47;101608.91;4997351;28;20048;-75
2022/04/18 08:16:37;;;;;;;3.33;1.60;;;;;;;20.04;32.13;101608.47;5032051;28;20135;-76
2022/04/18 08:19:11;;;;;;;5.13;2.17;;;;;;;19.63;31.71;101610.72;5047600;28;20038;-76
2022/04/18 08:21:37;;;;;;;4.10;1.95;;;;;;;18.94;32.35;101614.59;5030854;28;20095;-76
2022/04/18 08:24:03;;;;;;;2.60;2.00;;;;;;;18.12;33.89;101614.69;5047397;28;20064;-76
2022/04/18 08:26:38;;;;;;;5.13;1.88;;;;;;;17.51;34.57;101618.53;5031398;28;20424;-76
2022/04/18 08:29:29;;;;;;;5.03;2.33;;;;;;;16.97;35.30;101619.97;5031558;28;20054;-76
2022/04/18 08:32:16;;;;;;;6.43;2.20;;;;;;;16.41;36.03;101619.91;5027054;28;20148;-77
2022/04/18 08:34:41;;;;;;;8.30;2.08;;;;;;;16.34;36.71;101614.75;5030294;28;20045;-77
2022/04/18 08:37:10;;;;;;;1.95;1.63;;;;;;;16.37;36.49;101613.31;5030434;28;20037;-76
2022/04/18 08:40:10;;;;;;;5.10;1.65;;;;;;;16.56;36.27;101608.63;5011708;28;20477;-76
2022/04/18 08:42:39;;;;;;;4.13;1.80;;;;;;;16.61;36.73;101599.41;5063612;28;20041;-76
2022/04/18 08:45:08;;;;;;;5.40;1.70;;;;;;;16.48;36.74;101599.00;5047065;28;20043;-76
2022/04/18 08:53:08;;;;;;;4.57;1.83;;;;;;;17.99;35.01;101602.44;5026444;28;20485;-78
2022/04/18 08:55:34;;;;;;;;;;;;;;;18.43;34.18;101591.84;5052864;28;20107;-79
2022/04/18 08:58:11;;;;;;;4.78;2.25;;;;;;;18.50;33.88;101589.44;5029901;28;19917;-78
2022/04/18 09:00:38;;;;;;;;;;;;;;;18.75;33.84;101593.66;5014573;28;20045;-78
2022/04/18 09:03:23;;;;;;;3.70;2.30;;;;;;;19.10;32.89;101589.22;5031396;28;19916;-78
2022/04/18 09:06:10;;;;;;;5.68;2.60;;;;;;;19.20;33.03;101594.50;5030045;28;20037;-78
2022/04/18 09:08:54;;;;;;;4.53;1.83;;;;;;;18.95;32.94;101587.63;5029827;28;20041;-78
2022/04/18 09:11:30;;;;;;;4.65;2.47;;;;;;;19.04;33.16;101596.00;5029808;28;20037;-78
2022/04/18 09:14:09;;;;;;;8.55;2.25;;;;;;;19.06;32.97;101588.16;5013595;28;20395;-78
2022/04/18 09:16:37;;;;;;;8.05;2.72;;;;;;;18.88;32.97;101593.59;5046270;28;20451;-78
2022/04/18 09:19:05;;;;;;;4.32;2.10;;;;;;;18.24;33.43;101598.34;5030099;28;20086;-78
2022/04/18 09:21:32;;;;;;;5.70;2.40;;;;;;;17.96;34.02;101591.94;5013201;28;20061;-78
2022/04/18 09:23:57;;;;;;;3.88;2.13;;;;;;;17.60;34.74;101588.97;5031160;28;20042;-79
2022/04/18 09:26:32;;;;;;;6.93;1.80;;;;;;;17.13;34.69;101593.66;5027558;28;20518;-79
2022/04/18 09:29:06;;;;;;;10.45;2.30;;;;;;;16.55;35.82;101595.91;5029311;28;20103;-80
2022/04/18 09:31:41;;;;;;;6.25;2.65;;;;;;;16.22;36.30;101590.22;5010017;28;20132;-80
2022/04/18 09:34:19;;;;;;;6.40;1.63;;;;;;;15.88;37.30;101595.88;5029937;28;20044;-78
2022/04/18 09:36:45;;;;;;;6.35;2.33;;;;;;;15.53;37.52;101587.91;5023644;28;20144;-78
2022/04/18 09:39:10;;;;;;;9.75;1.90;;;;;;;15.00;38.38;101596.09;5023896;28;20136;-77
2022/04/18 09:42:08;;;;;;;2.78;1.98;;;;;;;14.53;39.50;101591.13;5024790;28;20131;-79
2022/04/18 09:44:52;;;;;;;2.35;1.58;;;;;;;14.25;39.83;101593.47;5039714;28;20491;-77
2022/04/18 09:47:20;;;;;;;3.35;1.50;;;;;;;13.96;39.88;101587.75;5060096;28;20066;-78
2022/04/18 09:49:46;;;;;;;3.72;1.90;;;;;;;13.73;40.48;101585.63;5056142;28;20040;-77
2022/04/18 09:52:19;;;;;;;3.95;1.38;;;;;;;13.56;40.82;101585.94;5035081;28;20046;-78
2022/04/18 09:54:56;;;;;;;3.43;1.33;;;;;;;13.41;41.74;101588.69;5035938;28;20163;-78
2022/04/18 09:57:27;;;;;;;3.72;1.50;;;;;;;13.32;41.48;101588.41;5017328;28;20036;-78
2022/04/18 09:59:55;;;;;;;7.93;1.73;;;;;;;13.27;41.99;101582.91;5056264;28;20044;-78
2022/04/18 10:02:21;;;;;;;5.57;1.98;;;;;;;13.28;42.13;101581.81;5036797;28;20059;-78
2022/04/18 10:04:47;;;;;;;4.15;1.88;;;;;;;13.40;41.88;101581.53;5031025;28;20042;-78
2022/04/18 10:07:14;;;;;;;17.70;2.47;;;;;;;13.46;42.03;101578.47;5041015;28;20585;-78
2022/04/18 10:09:41;;;;;;;12.63;2.38;;;;;;;13.50;42.21;101568.53;5052433;28;20538;-77
2022/04/18 10:12:11;;;;;;;9.98;2.00;;;;;;;13.53;41.96;101576.25;5082755;28;20049;-77
2022/04/18 10:14:38;;;;;;;7.35;2.00;;;;;;;13.57;41.41;101565.53;5030226;28;20048;-78
2022/04/18 10:17:06;;;;;;;6.60;1.80;;;;;;;13.61;41.22;101568.53;5015966;28;20042;-77
2022/04/18 10:19:47;;;;;;;4.93;2.78;;;;;;;13.60;41.43;101569.66;5030707;28;20160;-80
2022/04/18 10:22:24;;;;;;;3.20;1.90;;;;;;;13.72;41.65;101571.00;5017849;28;20099;-79
2022/04/18 10:25:01;;;;;;;6.35;2.10;;;;;;;13.78;41.86;101569.06;5037982;28;20479;-79
2022/04/18 10:27:40;;;;;;;3.85;1.40;;;;;;;13.77;41.83;101562.72;5022846;28;20548;-81
2022/04/18 10:30:07;;;;;;;3.83;1.83;;;;;;;13.87;41.48;101562.66;5028879;28;20088;-79
2022/04/18 10:32:35;;;;;;;3.25;2.08;;;;;;;13.92;41.54;101559.09;5019553;28;20046;-79
2022/04/18 10:35:03;;;;;;;6.82;2.00;;;;;;;13.83;41.89;101555.25;5030135;28;20052;-79
2022/04/18 10:37:29;;;;;;;4.35;2.15;;;;;;;13.74;42.13;101563.28;5031001;28;20057;-79
2022/04/18 10:40:04;;;;;;;6.18;1.65;;;;;;;13.68;41.71;101549.75;5034839;28;20038;-78
2022/04/18 10:42:40;;;;;;;9.13;2.03;;;;;;;13.71;42.21;101551.94;5055881;28;20139;-79
2022/04/18 10:45:27;;;;;;;6.68;1.75;;;;;;;13.65;41.96;101553.09;5036339;28;20044;-79
2022/04/18 10:47:56;;;;;;;3.70;1.88;;;;;;;13.71;42.08;101558.31;5029729;28;20033;-78
2022/04/18 10:50:22;;;;;;;3.60;1.70;;;;;;;13.64;41.93;101556.94;5013834;28;20048;-79
2022/04/18 10:53:22;;;;;;;8.15;2.20;;;;;;;13.53;42.31;101550.63;5020982;28;20053;-80
2022/04/18 10:55:51;;;;;;;5.47;2.03;;;;;;;13.55;42.60;101556.69;5015867;28;20568;-79
2022/04/18 10:58:18;;;;;;;7.55;2.40;;;;;;;13.58;42.68;101545.09;5013385;28;20525;-79
2022/04/18 11:00:53;;;;;;;6.72;2.60;;;;;;;13.60;42.42;101545.66;5016204;28;20044;-80
2022/04/18 11:03:37;;;;;;;5.95;3.30;;;;;;;13.64;42.86;101552.25;5033330;28;20037;-80
2022/04/18 11:06:07;;;;;;;9.35;3.03;;;;;;;13.67;43.14;101553.63;5030671;28;20569;-81
2022/04/18 11:08:35;;;;;;;9.27;3.88;;;;;;;13.68;42.78;101547.81;5033600;28;20033;-81
2022/04/18 11:11:06;;;;;;;11.43;4.75;;;;;;;13.81;42.64;101551.94;5029911;28;20041;-81
2022/04/18 11:13:33;;;;;;;8.90;3.95;;;;;;;13.92;42.06;101552.75;5047384;28;20041;-80
2022/04/18 11:16:23;;;;;;;4.47;2.85;;;;;;;13.83;42.19;101550.53;5015454;28;20033;-80
2022/04/18 11:19:13;;;;;;;6.22;2.53;;;;;;;13.78;43.02;101550.56;5024676;28;20041;-80
2022/04/18 11:21:55;;;;;;;4.78;2.38;;;;;;;13.81;42.84;101543.66;5024473;28;20099;-80
2022/04/18 11:24:51;;;;;;;5.57;2.13;;;;;;;13.81;42.36;101551.94;5028900;28;20045;-79
2022/04/18 11:27:35;;;;;;;7.45;2.28;;;;;;;13.90;42.13;101555.78;5028056;28;20124;-80
2022/04/18 11:30:11;;;;;;;10.40;3.38;;;;;;;13.91;42.75;101551.91;5040768;28;20045;-80
2022/04/18 11:32:44;;;;;;;5.07;2.40;;;;;;;13.90;42.21;101550.25;5034621;28;20041;-80
2022/04/18 11:35:11;;;;;;;5.00;2.22;;;;;;;13.85;42.39;101555.78;5033025;28;20079;-81
2022/04/18 11:37:43;;;;;;;4.57;2.88;;;;;;;13.83;42.24;101545.03;5015840;28;20041;-80
2022/04/18 11:40:16;;;;;;;5.38;2.50;;;;;;;13.81;42.84;101543.66;5040882;28;20038;-80
2022/04/18 11:42:43;;;;;;;6.15;3.10;;;;;;;13.74;43.10;101545.91;5054481;28;20036;-80
2022/04/18 11:45:10;;;;;;;4.57;2.53;;;;;;;13.72;43.40;101537.91;5031786;28;20042;-80
2022/04/18 11:47:37;;;;;;;5.88;2.40;;;;;;;13.73;43.45;101535.97;5045682;28;20077;-81
2022/04/18 11:50:04;;;;;;;4.22;2.22;;;;;;;13.84;42.43;101541.16;5026628;28;20033;-79
2022/04/18 11:52:32;;;;;;;4.00;1.90;;;;;;;13.90;42.49;101543.91;5038368;28;20045;-80
2022/04/18 11:55:05;;;;;;;6.03;2.00;;;;;;;13.91;42.60;101537.28;5031044;28;20047;-81
2022/04/18 11:57:36;;;;;;;6.15;1.90;;;;;;;13.95;42.35;101538.38;5031388;28;20103;-80